William Tyndale — WBG7411 — position and weather

sailwx.info

Track history (hours):
 
Tides and Currents Weather Stations Pressure Air Temp Water Temp Dewpoint Dewpoint Depression Visibility Wind Speed Wind Dir Waves Ship Positions

William Tyndale

Last reported at 2017-Dec-11 17:01 UTC. Time now 2017-Dec-12 04:47 UTC.
Position N 47°27' W 122°31'.

Length 14 m; draft 2 m.

Type: Tug. MMSI: 367567010.

Date/timePositionNaut miles runAvg speedWind from/ knotsBaromVisibWave heightAir tempDewpointWater temp
2017-Dec-11 17:01N 47°27' W 122°31'2 4.8
2017-Dec-11 16:30N 47°25' W 122°31'3 5.7
2017-Dec-11 16:00N 47°22' W 122°32'3 5.8
2017-Dec-11 15:30N 47°19' W 122°30'3 6.1
2017-Dec-11 15:00N 47°17' W 122°27'  
2017-Dec-07 14:26N 47°17' W 122°24'1 2.1
2017-Dec-07 14:00N 47°16' W 122°24'1 2.0
2017-Dec-07 13:30N 47°17' W 122°25'1 0.1
2017-Dec-06 23:29N 47°17' W 122°23'1 1.3
2017-Dec-06 23:00N 47°16' W 122°24'  
Track history (hours):
 
Tides and Currents Weather Stations Pressure Air Temp Water Temp Dewpoint Dewpoint Depression Visibility Wind Speed Wind Dir Waves Ship Positions

William Tyndale

Last reported at 2017-Dec-11 17:01 UTC. Time now 2017-Dec-12 04:47 UTC.
Position N 47°27' W 122°31'.

Length 14 m; draft 2 m.

Type: Tug. MMSI: 367567010.

Date/timePositionNaut miles runAvg speedWind from/ knotsBaromVisibWave heightAir tempDewpointWater temp
2017-Dec-11 17:01N 47°27' W 122°31'2 4.8
2017-Dec-11 16:30N 47°25' W 122°31'3 5.7
2017-Dec-11 16:00N 47°22' W 122°32'3 5.8
2017-Dec-11 15:30N 47°19' W 122°30'3 6.1
2017-Dec-11 15:00N 47°17' W 122°27'  
2017-Dec-07 14:26N 47°17' W 122°24'1 2.1
2017-Dec-07 14:00N 47°16' W 122°24'1 2.0
2017-Dec-07 13:30N 47°17' W 122°25'1 0.1
2017-Dec-06 23:29N 47°17' W 122°23'1 1.3
2017-Dec-06 23:00N 47°16' W 122°24'  

Dump ship's entire track history